Portada
METAR-TAF:

METAR-TAF

Aeropuertos :

Libreville, Gabón

Aeropuerto Internacional de Libreville-Leon M'ba

latitud: 00-27N, longitud: 009-25E, altitud: 12 m

Observación

El informe se hizo hace 29 minutos, a las 19:00 UTC
Viento 7 kt del suroeste
Temperatura 25°C
Humedad 83%
Presión 1012 hPa
Visibilidad: 9000 m
Nubes dispersas a una altura de 1000 ft
Cielo nuboso a una altura de 3300 ft

METAR: FOOL 171900Z 23007KT 9000 SCT010 BKN033 25/22 Q1012 NOSIG

Hora: 20:29 (19:29 UTC)

Pronóstico

El informe se hizo hace 2 horas y 29 minutos, a las 17:00 UTC
Pronóstico válido del 17 a las 18 UTC al 18 a las 24 UTC
Viento 7 kt del sur-suroeste
Visibilidad: 8000 m
Nubes dispersas a una altura de 600 ft
Cielo cubierto a una altura de 2500 ft

TAF: FOOL 171700Z 1718/1824 21007KT 8000 SCT006 OVC025

Observaciones y pronósticos meteorológicos de más de 4000 aeropuertos (mensajes METAR y TAF).

Los puntos amarillos y rojos representan las estaciones disponibles.

Ponga el ratón en el punto deseado para ver el nombre de la estación.

Haga clic para ver las observaciones y los pronósticos meteorológicos.

Para cambiar el mapa : haga clic en los botones verdes con una cruz de color negro para hacer un zoom, en el botón verde con un guión para alejar o en las flechas verdes para mapas adyacentes.


METAR-TAF: